createdAt,value
2023-03-22T00:00:15.360Z,18.50
2023-03-22T00:02:42.114Z,18.40
2023-03-22T00:05:09.651Z,18.40
2023-03-22T00:07:37.581Z,18.40
2023-03-22T00:10:05.762Z,18.40
2023-03-22T00:12:32.439Z,18.30
2023-03-22T00:15:00.108Z,18.30
2023-03-22T00:17:26.940Z,18.30
2023-03-22T00:19:54.655Z,18.30
2023-03-22T00:22:21.728Z,18.30
2023-03-22T00:24:48.446Z,18.20
2023-03-22T00:27:15.796Z,18.20
2023-03-22T00:29:42.561Z,18.20
2023-03-22T00:32:09.356Z,18.20
2023-03-22T00:34:36.177Z,18.10
2023-03-22T00:37:03.047Z,18.10
2023-03-22T00:39:30.265Z,18.10
2023-03-22T00:41:57.008Z,18.10
2023-03-22T00:44:23.722Z,18.00
2023-03-22T00:46:50.680Z,18.00
2023-03-22T00:49:17.604Z,18.00
2023-03-22T00:51:44.532Z,18.00
2023-03-22T00:54:11.811Z,18.00
2023-03-22T00:56:38.634Z,18.00
2023-03-22T00:59:16.671Z,18.00
2023-03-22T01:01:43.950Z,17.90
2023-03-22T01:04:15.369Z,17.90
2023-03-22T01:06:42.123Z,17.90
2023-03-22T01:09:14.656Z,17.90
2023-03-22T01:11:43.332Z,17.80
2023-03-22T01:14:10.064Z,17.80
2023-03-22T01:16:37.878Z,17.80
2023-03-22T01:19:04.691Z,17.80
2023-03-22T01:21:31.492Z,17.80
2023-03-22T01:23:58.602Z,17.80
2023-03-22T01:26:25.524Z,17.70
2023-03-22T01:28:52.572Z,17.70
2023-03-22T01:31:19.345Z,17.70
2023-03-22T01:33:46.139Z,17.70
2023-03-22T01:36:13.077Z,17.70
2023-03-22T01:38:39.981Z,17.70
2023-03-22T01:41:07.373Z,17.60
2023-03-22T01:43:38.169Z,17.60
2023-03-22T01:46:05.352Z,17.60
2023-03-22T01:48:50.613Z,17.60
2023-03-22T01:51:24.822Z,17.60
2023-03-22T01:54:11.996Z,17.60
2023-03-22T01:56:41.582Z,17.60
2023-03-22T01:59:14.604Z,17.60
2023-03-22T02:02:04.901Z,17.60
2023-03-22T02:04:35.549Z,17.50
2023-03-22T02:07:10.040Z,17.50
2023-03-22T02:09:41.223Z,17.50
2023-03-22T02:13:10.949Z,17.50
2023-03-22T02:15:55.754Z,17.50
2023-03-22T02:18:55.748Z,17.50
2023-03-22T02:21:35.272Z,17.40
2023-03-22T02:24:26.410Z,17.40
2023-03-22T02:27:23.073Z,17.40
2023-03-22T02:30:24.422Z,17.40
2023-03-22T02:33:05.385Z,17.40
2023-03-22T02:35:54.231Z,17.40
2023-03-22T02:38:20.959Z,17.30
2023-03-22T02:41:02.111Z,17.40
2023-03-22T02:43:34.251Z,17.30
2023-03-22T02:46:32.277Z,17.30
2023-03-22T02:49:29.538Z,17.30
2023-03-22T02:52:25.779Z,17.30
2023-03-22T02:55:21.054Z,17.30
2023-03-22T02:57:58.521Z,17.20
2023-03-22T03:00:27.082Z,17.20
2023-03-22T03:03:01.065Z,17.20
2023-03-22T03:05:30.817Z,17.10
2023-03-22T03:08:02.466Z,17.10
2023-03-22T03:10:31.222Z,17.10
2023-03-22T03:12:59.730Z,17.10
2023-03-22T03:15:26.625Z,17.10
2023-03-22T03:17:56.028Z,17.10
2023-03-22T03:20:42.561Z,17.10
2023-03-22T03:23:34.834Z,17.00
2023-03-22T03:26:15.522Z,17.00
2023-03-22T03:28:45.355Z,17.00
2023-03-22T03:31:23.280Z,17.00
2023-03-22T03:33:59.821Z,17.00
2023-03-22T03:36:28.423Z,17.00
2023-03-22T03:38:56.698Z,17.00
2023-03-22T03:41:29.243Z,17.00
2023-03-22T03:43:58.370Z,17.00
2023-03-22T03:46:27.802Z,17.00
2023-03-22T03:48:57.275Z,17.00
2023-03-22T03:51:26.008Z,17.00
2023-03-22T03:53:52.706Z,16.90
2023-03-22T03:56:21.827Z,16.90
2023-03-22T03:58:49.662Z,16.90
2023-03-22T04:01:19.594Z,16.90
2023-03-22T04:04:10.094Z,16.90
2023-03-22T04:06:59.357Z,16.90
2023-03-22T04:09:38.955Z,16.90
2023-03-22T04:12:25.985Z,16.90
2023-03-22T04:15:13.127Z,16.90
2023-03-22T04:17:42.298Z,16.90
2023-03-22T04:20:12.311Z,16.80
2023-03-22T04:22:41.315Z,16.80
2023-03-22T04:25:11.821Z,16.80
2023-03-22T04:27:42.962Z,16.80
2023-03-22T04:30:22.741Z,16.80
2023-03-22T04:33:08.181Z,16.80
2023-03-22T04:36:17.504Z,16.80
2023-03-22T04:39:00.249Z,16.80
2023-03-22T04:41:27.272Z,16.70
2023-03-22T04:43:57.547Z,16.70
2023-03-22T04:46:24.413Z,16.80
2023-03-22T04:48:59.997Z,16.70
2023-03-22T04:51:27.524Z,16.70
2023-03-22T04:54:13.296Z,16.70
2023-03-22T04:56:42.002Z,16.70
2023-03-22T04:59:10.759Z,16.70
2023-03-22T05:01:37.670Z,16.70
2023-03-22T05:04:11.722Z,16.60
2023-03-22T05:06:38.492Z,16.60
2023-03-22T05:09:12.241Z,16.60
2023-03-22T05:11:40.584Z,16.60
2023-03-22T05:14:27.699Z,16.60
2023-03-22T05:16:54.663Z,16.60
2023-03-22T05:19:24.270Z,16.60
2023-03-22T05:21:58.033Z,16.60
2023-03-22T05:24:32.483Z,16.50
2023-03-22T05:27:03.638Z,16.50
2023-03-22T05:29:36.721Z,16.60
2023-03-22T05:32:14.435Z,16.50
2023-03-22T05:34:41.819Z,16.50
2023-03-22T05:37:21.144Z,16.50
2023-03-22T05:39:51.877Z,16.50
2023-03-22T05:42:19.631Z,16.50
2023-03-22T05:44:46.356Z,16.50
2023-03-22T05:47:13.665Z,16.50
2023-03-22T05:50:12.601Z,16.50
2023-03-22T05:52:39.619Z,16.50
2023-03-22T05:55:38.886Z,16.50
2023-03-22T05:58:06.037Z,16.50
2023-03-22T06:00:36.642Z,16.40
2023-03-22T06:03:32.557Z,16.50
2023-03-22T06:06:10.685Z,16.40
2023-03-22T06:08:47.169Z,16.40
2023-03-22T06:11:13.868Z,16.40
2023-03-22T06:13:40.819Z,16.40
2023-03-22T06:16:11.436Z,16.40
2023-03-22T06:18:38.593Z,16.40
2023-03-22T06:21:10.145Z,16.40
2023-03-22T06:23:37.613Z,16.40
2023-03-22T06:26:04.772Z,16.40
2023-03-22T06:28:34.615Z,16.40
2023-03-22T06:31:09.911Z,16.40
2023-03-22T06:33:51.848Z,16.40
2023-03-22T06:36:26.353Z,16.30
2023-03-22T06:39:05.242Z,16.30
2023-03-22T06:41:32.632Z,16.30
2023-03-22T06:44:00.608Z,16.30
2023-03-22T06:46:41.859Z,16.30
2023-03-22T06:49:19.189Z,16.30
2023-03-22T06:51:46.162Z,16.30
2023-03-22T06:54:14.252Z,16.30
2023-03-22T06:56:41.008Z,16.30
2023-03-22T06:59:07.779Z,16.30
2023-03-22T07:01:34.678Z,16.30
2023-03-22T07:04:01.692Z,16.30
2023-03-22T07:06:28.850Z,16.30
2023-03-22T07:08:55.855Z,16.20
2023-03-22T07:11:28.557Z,16.30
2023-03-22T07:14:00.272Z,16.20
2023-03-22T07:16:35.988Z,16.20
2023-03-22T07:19:05.136Z,16.20
2023-03-22T07:21:31.976Z,16.20
2023-03-22T07:24:04.545Z,16.20
2023-03-22T07:26:32.205Z,16.20
2023-03-22T07:29:01.066Z,16.20
2023-03-22T07:31:31.527Z,16.20
2023-03-22T07:34:05.030Z,16.20
2023-03-22T07:36:38.583Z,16.20
2023-03-22T07:39:08.632Z,16.20
2023-03-22T07:41:41.053Z,16.20
2023-03-22T07:44:26.336Z,16.20
2023-03-22T07:47:22.155Z,16.10
2023-03-22T07:50:14.676Z,16.10
2023-03-22T07:52:44.794Z,16.20
2023-03-22T07:55:14.192Z,16.10
2023-03-22T07:57:41.577Z,16.10
2023-03-22T08:00:10.491Z,16.10
2023-03-22T08:02:45.731Z,16.10
2023-03-22T08:05:23.740Z,16.10
2023-03-22T08:07:57.441Z,16.10
2023-03-22T08:10:24.215Z,16.10
2023-03-22T08:12:51.199Z,16.10
2023-03-22T08:15:22.863Z,16.10
2023-03-22T08:17:52.823Z,16.10
2023-03-22T08:20:29.542Z,16.10
2023-03-22T08:23:01.051Z,16.10
2023-03-22T08:25:28.678Z,16.10
2023-03-22T08:28:03.966Z,16.10
2023-03-22T08:30:30.768Z,16.10
2023-03-22T08:32:57.581Z,16.10
2023-03-22T08:35:24.403Z,16.10
2023-03-22T08:37:55.385Z,16.10
2023-03-22T08:40:26.056Z,16.10
2023-03-22T08:42:57.393Z,16.10
2023-03-22T08:45:24.676Z,16.00
2023-03-22T08:47:59.900Z,16.00
2023-03-22T08:50:27.163Z,16.00
2023-03-22T08:53:07.092Z,16.00
2023-03-22T08:55:37.531Z,16.00
2023-03-22T08:58:14.557Z,16.00
2023-03-22T09:00:50.529Z,16.00
2023-03-22T09:03:46.545Z,16.00
2023-03-22T09:06:14.006Z,16.00
2023-03-22T09:08:42.435Z,16.00
2023-03-22T09:11:13.293Z,16.00
2023-03-22T09:13:42.155Z,16.00
2023-03-22T09:16:09.422Z,16.00
2023-03-22T09:18:38.071Z,16.00
2023-03-22T09:21:11.938Z,16.00
2023-03-22T09:23:50.402Z,16.00
2023-03-22T09:26:19.828Z,16.00
2023-03-22T09:28:50.228Z,16.00
2023-03-22T09:31:19.794Z,16.00
2023-03-22T09:33:49.446Z,15.90
2023-03-22T09:36:16.592Z,16.00
2023-03-22T09:38:43.796Z,15.90
2023-03-22T09:41:36.736Z,15.90
2023-03-22T09:44:08.130Z,16.00
2023-03-22T09:46:41.707Z,15.90
2023-03-22T09:49:20.838Z,15.90
2023-03-22T09:51:50.352Z,15.90
2023-03-22T09:54:33.990Z,15.90
2023-03-22T09:57:04.248Z,15.90
2023-03-22T09:59:53.716Z,15.90
2023-03-22T10:06:32.736Z,15.90
2023-03-22T10:09:47.705Z,15.90
2023-03-22T10:13:08.362Z,15.90
2023-03-22T10:16:03.504Z,15.90
2023-03-22T10:18:39.473Z,15.90
2023-03-22T10:21:20.688Z,15.90
2023-03-22T10:24:32.604Z,15.90
2023-03-22T10:30:48.731Z,15.80
2023-03-22T10:33:30.883Z,15.80
2023-03-22T10:35:57.790Z,15.80
2023-03-22T10:38:27.662Z,15.80
2023-03-22T10:40:58.265Z,15.80
2023-03-22T10:43:37.036Z,15.90
2023-03-22T10:46:08.090Z,15.90
2023-03-22T10:48:47.144Z,15.80
2023-03-22T10:51:35.816Z,15.90
2023-03-22T10:54:03.377Z,15.80
2023-03-22T10:56:30.240Z,15.90
2023-03-22T10:58:57.296Z,15.80
2023-03-22T11:01:27.211Z,15.90
2023-03-22T11:04:00.637Z,15.90
2023-03-22T11:06:29.894Z,15.90
2023-03-22T11:09:19.155Z,15.90
2023-03-22T11:11:55.646Z,15.80
2023-03-22T11:14:28.320Z,15.80
2023-03-22T11:17:08.251Z,15.80
2023-03-22T11:19:37.836Z,15.80
2023-03-22T11:22:24.327Z,15.80
2023-03-22T11:24:59.208Z,15.80
2023-03-22T11:27:33.823Z,15.80
2023-03-22T11:30:22.230Z,15.80
2023-03-22T11:32:49.413Z,15.80
2023-03-22T11:35:23.842Z,15.80
2023-03-22T11:37:56.536Z,15.80
2023-03-22T11:40:26.233Z,15.80
2023-03-22T11:43:14.460Z,15.80
2023-03-22T11:45:43.261Z,15.80
2023-03-22T11:48:16.159Z,15.80
2023-03-22T11:50:44.728Z,15.80
2023-03-22T11:53:18.063Z,15.80
2023-03-22T11:55:45.985Z,15.80
2023-03-22T11:58:43.020Z,15.80
2023-03-22T12:01:53.180Z,15.80
2023-03-22T12:04:27.072Z,15.80
2023-03-22T12:06:57.925Z,15.80
2023-03-22T12:09:36.667Z,15.80
2023-03-22T12:12:05.583Z,15.80
2023-03-22T12:14:54.371Z,15.80
2023-03-22T12:17:50.215Z,15.80
2023-03-22T12:21:04.233Z,15.80
2023-03-22T12:23:36.645Z,15.80
2023-03-22T12:26:11.478Z,15.80
2023-03-22T12:28:56.304Z,15.80
2023-03-22T12:31:32.086Z,15.80
2023-03-22T12:34:05.324Z,15.80
2023-03-22T12:36:42.862Z,15.80
2023-03-22T12:39:19.351Z,15.80
2023-03-22T12:41:50.332Z,15.80
2023-03-22T12:44:29.171Z,15.80
2023-03-22T12:47:03.239Z,15.80
2023-03-22T12:49:40.469Z,15.80
2023-03-22T12:52:44.806Z,15.80
2023-03-22T12:55:33.133Z,15.80
2023-03-22T12:58:00.641Z,15.80
2023-03-22T13:00:39.936Z,15.80
2023-03-22T13:03:28.827Z,15.70
2023-03-22T13:06:07.925Z,15.80
2023-03-22T13:09:17.995Z,15.80
2023-03-22T13:11:47.045Z,15.80
2023-03-22T13:14:57.906Z,15.70
2023-03-22T13:17:24.967Z,15.80
2023-03-22T13:20:07.671Z,15.70
2023-03-22T13:22:37.614Z,15.70
2023-03-22T13:25:12.505Z,15.70
2023-03-22T13:27:45.459Z,15.70
2023-03-22T13:30:23.124Z,15.70
2023-03-22T13:32:57.724Z,15.80
2023-03-22T13:35:28.286Z,15.70
2023-03-22T13:38:03.042Z,15.70
2023-03-22T13:40:44.461Z,15.70
2023-03-22T13:43:31.738Z,15.70
2023-03-22T13:46:16.642Z,15.70
2023-03-22T13:48:55.292Z,15.70
2023-03-22T13:51:30.016Z,15.70
2023-03-22T13:54:13.334Z,15.70
2023-03-22T13:56:56.380Z,15.70
2023-03-22T13:59:29.570Z,15.70
2023-03-22T14:02:18.622Z,15.70
2023-03-22T14:04:47.447Z,15.70
2023-03-22T14:07:26.617Z,15.70
2023-03-22T14:10:01.375Z,15.70
2023-03-22T14:12:52.673Z,15.70
2023-03-22T14:15:25.172Z,15.70
2023-03-22T14:18:00.776Z,15.70
2023-03-22T14:20:34.384Z,15.70
